TAF and METAR

Decoding for American and Canadian METARs and TAFs is not fully implemented.

Could not understand the following METAR

KTRM 192052Z AUTO 14005KT 10SM CLR 32/M06 A2980 RMK AO2 SLP091 T03171061 58024 $

TAF for Jacqueline Cochran Regional Airport

KTRM 191725Z 1918/2018 15005KT P6SM SKC FM200300 33005KT P6SM SKC FM201300 33010KT P6SM SKC
Report created 19. okt 19:25

between 19. okt 20:00 - 20. okt 20:00

wind 5 knots from SSE (150°)
Jacqueline Cochran Regional Airport in United States of America at -35m

Latest 5 airports